Time;durP1;ratioP1;P1;durP2;ratioP2;P2;SDS_P1;SDS_P2;PMS_P1;PMS_P2;Temp;Humidity;BMP_temperature;BMP_pressure;BME280_temperature;BME280_humidity;BME280_pressure;Samples;Min_cycle;Max_cycle;Signal;HPM_P1;HPM_P2
2023/03/27 00:00:21;;;;;;;2.80;1.97;;;15.90;64.10;17.00;100410.00;;;;5008557;28;20219;-47
2023/03/27 00:02:48;;;;;;;2.70;2.07;;;15.90;64.20;17.00;100417.00;;;;5008930;28;20176;-46
2023/03/27 00:05:15;;;;;;;2.97;2.10;;;15.90;64.20;17.00;100417.00;;;;5008537;28;20199;-45
2023/03/27 00:07:41;;;;;;;3.83;2.43;;;15.90;64.20;17.00;100408.00;;;;5008756;28;20270;-47
2023/03/27 00:10:11;;;;;;;3.00;2.20;;;15.90;64.30;17.00;100417.00;;;;5008025;28;20653;-46
2023/03/27 00:12:37;;;;;;;3.40;2.00;;;15.80;64.20;17.00;100402.00;;;;5008482;28;20254;-45
2023/03/27 00:15:04;;;;;;;3.00;2.10;;;15.90;64.30;17.00;100433.00;;;;5008712;28;20183;-46
2023/03/27 00:17:30;;;;;;;2.73;2.13;;;15.80;64.20;17.00;100434.00;;;;5008529;28;20184;-47
2023/03/27 00:19:56;;;;;;;4.20;1.93;;;15.80;64.30;17.00;100435.00;;;;5008159;28;20184;-46
2023/03/27 00:22:22;;;;;;;3.10;2.23;;;15.80;64.30;17.00;100434.00;;;;5008281;28;20278;-47
2023/03/27 00:24:47;;;;;;;2.80;1.90;;;15.80;64.30;16.90;100440.00;;;;5012443;28;20270;-46
2023/03/27 00:27:13;;;;;;;2.40;2.07;;;15.80;64.30;16.90;100451.00;;;;5015411;28;20172;-45
2023/03/27 00:29:39;;;;;;;2.20;1.90;;;15.80;64.20;16.90;100455.00;;;;5015198;28;20666;-46
2023/03/27 00:32:05;;;;;;;2.30;1.67;;;15.80;64.20;16.90;100463.00;;;;5010865;28;20196;-46
2023/03/27 00:34:32;;;;;;;2.43;2.10;;;15.80;64.20;16.90;100470.00;;;;5009073;28;20308;-47
2023/03/27 00:36:57;;;;;;;3.53;2.00;;;15.80;64.30;16.90;100472.00;;;;5008846;28;20276;-47
2023/03/27 00:39:23;;;;;;;3.20;1.83;;;15.70;64.10;16.90;100479.00;;;;5008568;28;20182;-47
2023/03/27 00:41:49;;;;;;;2.97;2.20;;;15.70;64.20;16.90;100476.00;;;;4987488;28;20578;-47
2023/03/27 00:44:27;;;;;;;3.67;2.23;;;15.70;64.20;16.80;100482.00;;;;5008085;28;20250;-46
2023/03/27 00:46:53;;;;;;;2.70;2.20;;;15.70;64.20;16.80;100496.00;;;;5007490;28;20568;-47
2023/03/27 00:49:19;;;;;;;2.30;2.03;;;15.70;64.20;16.80;100490.00;;;;5007099;28;20183;-46
2023/03/27 00:51:45;;;;;;;2.57;1.87;;;15.70;64.30;16.80;100487.00;;;;5009847;28;20203;-46
2023/03/27 00:54:17;;;;;;;2.43;2.03;;;15.70;64.20;16.80;100490.00;;;;5010391;28;20183;-46
2023/03/27 00:56:43;;;;;;;2.70;2.07;;;15.60;64.10;16.80;100490.00;;;;5010492;28;20649;-46
2023/03/27 00:59:12;;;;;;;2.10;1.90;;;15.60;64.10;16.80;100493.00;;;;5010312;28;20187;-46
2023/03/27 01:01:38;;;;;;;2.33;1.90;;;15.60;64.20;16.80;100496.00;;;;5010257;28;20230;-46
2023/03/27 01:04:05;;;;;;;2.03;1.73;;;15.60;64.30;16.70;100495.00;;;;5011377;28;20231;-46
2023/03/27 01:06:31;;;;;;;2.07;1.80;;;15.70;64.40;16.70;100503.00;;;;5010374;28;20175;-46
2023/03/27 01:08:56;;;;;;;2.20;1.80;;;15.60;64.30;16.70;100509.00;;;;5011353;28;20724;-47
2023/03/27 01:11:31;;;;;;;2.40;1.90;;;15.50;64.40;16.70;100517.00;;;;5011367;28;20203;-47
2023/03/27 01:14:07;;;;;;;2.30;1.87;;;15.50;64.40;16.70;100514.00;;;;5011261;28;20190;-46
2023/03/27 01:17:09;;;;;;;3.23;1.97;;;15.60;64.30;16.70;100512.00;;;;5010338;28;20175;-46
2023/03/27 01:19:49;;;;;;;2.63;1.90;;;15.50;64.30;16.60;100518.00;;;;5010291;28;20670;-46
2023/03/27 01:22:59;;;;;;;2.00;1.70;;;15.50;64.30;16.60;100519.00;;;;5010088;28;20222;-47
2023/03/27 01:25:39;;;;;;;2.70;1.90;;;15.50;64.30;16.60;100532.00;;;;5009954;28;20539;-46
2023/03/27 01:28:28;;;;;;;2.00;1.80;;;15.50;64.30;16.60;100523.00;;;;5010075;28;20737;-46
2023/03/27 01:31:06;;;;;;;2.27;1.80;;;15.50;64.30;16.60;100543.00;;;;5009933;28;20199;-46
2023/03/27 01:33:50;;;;;;;1.80;1.67;;;15.50;64.20;16.60;100487.00;;;;5009940;28;20186;-46
2023/03/27 01:36:38;;;;;;;2.40;1.90;;;15.50;64.20;16.50;100544.00;;;;5011323;28;20180;-46
2023/03/27 01:39:44;;;;;;;2.63;1.80;;;15.50;64.10;16.50;100550.00;;;;5010300;28;20261;-46
2023/03/27 01:42:22;;;;;;;2.00;1.80;;;15.50;64.10;16.50;100550.00;;;;5010998;28;20199;-45
2023/03/27 01:45:29;;;;;;;2.10;1.80;;;15.40;64.10;16.50;100565.00;;;;5011093;28;20227;-45
2023/03/27 01:48:06;;;;;;;2.87;1.93;;;15.40;64.40;16.50;100566.00;;;;5009423;28;20184;-46
2023/03/27 01:50:38;;;;;;;2.57;1.73;;;15.40;64.50;16.50;100566.00;;;;4989929;28;20287;-46
2023/03/27 01:53:26;;;;;;;2.70;2.00;;;15.40;64.50;16.50;100571.00;;;;4991927;28;20549;-46
2023/03/27 01:56:24;;;;;;;2.33;1.73;;;15.40;64.50;16.50;100576.00;;;;5009802;28;20670;-46
2023/03/27 01:58:52;;;;;;;2.83;2.00;;;15.40;64.50;16.40;100582.00;;;;5009912;28;20187;-46
2023/03/27 02:01:25;;;;;;;1.97;1.70;;;15.40;64.50;16.40;100586.00;;;;5009316;28;20211;-46
2023/03/27 02:03:56;;;;;;;1.97;1.50;;;15.40;64.50;16.40;100568.00;;;;5008552;28;20709;-46
2023/03/27 02:06:34;;;;;;;1.90;1.70;;;15.40;64.50;16.40;100596.00;;;;5009503;28;20271;-47
2023/03/27 02:09:17;;;;;;;2.37;1.73;;;15.30;64.40;16.40;100583.00;;;;5008981;28;20214;-46
2023/03/27 02:11:48;;;;;;;2.00;1.80;;;15.30;64.40;16.40;100611.00;;;;5009172;28;20689;-48
2023/03/27 02:14:20;;;;;;;2.00;1.73;;;15.30;64.40;16.40;100606.00;;;;5009080;28;20631;-47
2023/03/27 02:16:51;;;;;;;1.97;1.67;;;15.30;64.40;16.40;100610.00;;;;5009163;28;20198;-46
2023/03/27 02:19:28;;;;;;;2.27;1.80;;;15.30;64.40;16.40;100613.00;;;;5008611;28;20653;-46
2023/03/27 02:21:54;;;;;;;3.07;1.80;;;15.30;64.40;16.40;100612.00;;;;5010069;28;20678;-46
2023/03/27 02:24:20;;;;;;;2.00;1.60;;;15.30;64.40;16.40;100617.00;;;;5010082;28;20225;-46
2023/03/27 02:26:48;;;;;;;1.43;1.30;;;15.20;64.30;16.30;100606.00;;;;5008977;28;20195;-46
2023/03/27 02:29:40;;;;;;;2.47;1.70;;;15.20;64.30;16.30;100618.00;;;;5008903;28;20179;-47
2023/03/27 02:32:52;;;;;;;1.70;1.60;;;15.20;65.00;16.30;100625.00;;;;5008873;28;20200;-46
2023/03/27 02:35:49;;;;;;;2.40;1.83;;;15.20;64.30;16.30;100640.00;;;;5009268;28;20187;-47
2023/03/27 02:38:28;;;;;;;2.27;1.70;;;15.20;64.30;16.30;100639.00;;;;5008669;28;20206;-46
2023/03/27 02:41:27;;;;;;;1.80;1.60;;;15.20;64.30;16.20;100641.00;;;;5008329;28;20222;-46
2023/03/27 02:44:14;;;;;;;1.60;1.43;;;15.20;64.30;16.20;100650.00;;;;5008155;28;20207;-46
2023/03/27 02:47:06;;;;;;;2.77;1.80;;;15.10;64.20;16.20;100652.00;;;;4992653;28;20650;-46
2023/03/27 02:49:45;;;;;;;1.90;1.70;;;15.20;64.30;16.20;100657.00;;;;5009783;28;20176;-46
2023/03/27 02:52:13;;;;;;;2.70;1.70;;;15.10;64.20;16.20;100664.00;;;;5008098;28;20204;-46
2023/03/27 02:54:47;;;;;;;2.33;1.70;;;15.10;64.20;16.20;100678.00;;;;5008169;28;20279;-46
2023/03/27 02:57:17;;;;;;;2.17;1.47;;;15.10;64.20;16.20;100669.00;;;;5008566;28;20268;-45
2023/03/27 02:59:50;;;;;;;1.80;1.70;;;15.10;64.20;16.10;100672.00;;;;5008364;28;20199;-46
2023/03/27 03:02:29;;;;;;;2.17;1.80;;;15.10;64.20;16.10;100680.00;;;;5007950;28;20207;-46
2023/03/27 03:05:03;;;;;;;1.53;1.43;;;15.10;64.20;16.10;100679.00;;;;5008093;28;20202;-46
2023/03/27 03:07:29;;;;;;;2.90;1.90;;;15.00;64.10;16.10;100677.00;;;;5008280;28;20179;-47
2023/03/27 03:09:55;;;;;;;1.93;1.70;;;15.00;64.10;16.10;100686.00;;;;5007983;28;20792;-46
2023/03/27 03:12:21;;;;;;;1.70;1.60;;;15.10;64.20;16.10;100686.00;;;;5009658;28;20712;-46
2023/03/27 03:14:47;;;;;;;1.60;1.50;;;15.00;64.90;16.10;100694.00;;;;5009224;28;20282;-47
2023/03/27 03:17:13;;;;;;;1.70;1.60;;;15.00;64.10;16.10;100693.00;;;;5009135;28;20253;-46
2023/03/27 03:19:39;;;;;;;1.60;1.50;;;15.00;64.10;16.10;100701.00;;;;5009130;28;20184;-46
2023/03/27 03:22:05;;;;;;;2.13;1.50;;;14.90;63.90;16.10;100693.00;;;;5009270;28;20266;-47
2023/03/27 03:24:32;;;;;;;2.13;1.57;;;14.90;63.90;16.00;100703.00;;;;5008054;28;20211;-46
2023/03/27 03:26:58;;;;;;;1.80;1.60;;;14.90;63.90;16.00;100701.00;;;;5007888;28;20258;-46
2023/03/27 03:29:28;;;;;;;2.50;1.90;;;14.90;64.70;16.00;100721.00;;;;5009103;28;20171;-46
2023/03/27 03:31:55;;;;;;;2.93;1.80;;;14.90;63.90;16.00;100718.00;;;;5008830;28;20729;-46
2023/03/27 03:34:23;;;;;;;1.97;1.70;;;14.90;67.40;16.00;100723.00;;;;5009167;28;20202;-46
2023/03/27 03:36:49;;;;;;;1.63;1.53;;;14.90;65.00;16.00;100724.00;;;;5009275;28;20184;-47
2023/03/27 03:39:15;;;;;;;1.80;1.67;;;14.90;64.60;16.00;100731.00;;;;5009132;28;20175;-47
2023/03/27 03:41:41;;;;;;;1.80;1.50;;;14.90;64.20;16.00;100745.00;;;;5007918;28;20199;-46
2023/03/27 03:44:08;;;;;;;2.80;1.70;;;14.90;64.20;16.00;100729.00;;;;5008985;28;20674;-47
2023/03/27 03:46:34;;;;;;;3.33;1.60;;;14.90;64.10;16.00;100740.00;;;;5010094;28;20541;-47
2023/03/27 03:49:00;;;;;;;2.43;1.67;;;14.90;64.10;15.90;100736.00;;;;5010144;28;20183;-45
2023/03/27 03:51:27;;;;;;;2.00;1.80;;;14.90;64.30;15.90;100737.00;;;;5008425;28;20214;-45
2023/03/27 03:53:52;;;;;;;3.30;1.80;;;14.80;64.00;15.90;100732.00;;;;5009886;28;20184;-47
2023/03/27 03:56:18;;;;;;;4.30;2.00;;;14.80;63.80;15.90;100738.00;;;;5010025;28;20184;-46
2023/03/27 03:58:44;;;;;;;4.37;1.83;;;14.80;63.90;15.90;100745.00;;;;5009740;28;20249;-46
2023/03/27 04:01:10;;;;;;;4.53;1.97;;;14.80;63.80;15.90;100754.00;;;;5008070;28;20218;-46
2023/03/27 04:03:36;;;;;;;3.83;1.80;;;14.80;63.80;15.80;100751.00;;;;5001190;28;20207;-46
2023/03/27 04:06:06;;;;;;;4.37;2.20;;;14.70;63.50;15.80;100769.00;;;;5009474;28;20180;-46
2023/03/27 04:08:33;;;;;;;6.40;2.20;;;14.70;63.30;15.80;100760.00;;;;5009569;28;20661;-47
2023/03/27 04:10:59;;;;;;;3.10;2.03;;;14.70;63.20;15.80;100771.00;;;;5009168;28;20219;-46
2023/03/27 04:13:24;;;;;;;6.17;2.00;;;14.70;62.90;15.70;100776.00;;;;5008560;28;20204;-46
2023/03/27 04:15:51;;;;;;;4.83;2.20;;;14.70;62.80;15.70;100785.00;;;;5009435;28;20214;-46
2023/03/27 04:18:18;;;;;;;4.23;2.03;;;14.60;62.50;15.70;100785.00;;;;5008876;28;20608;-47
2023/03/27 04:20:49;;;;;;;3.83;2.10;;;14.60;62.50;15.70;100782.00;;;;5009449;28;20231;-46
2023/03/27 04:23:18;;;;;;;4.10;2.63;;;14.60;62.50;15.70;100783.00;;;;5008343;28;20230;-46
2023/03/27 04:25:45;;;;;;;3.17;2.10;;;14.60;62.30;15.70;100805.00;;;;5011012;28;20199;-46
2023/03/27 04:28:15;;;;;;;3.63;2.00;;;14.60;62.40;15.60;100807.00;;;;5013429;28;20556;-46
2023/03/27 04:30:42;;;;;;;4.67;2.33;;;14.60;62.40;15.60;100811.00;;;;5013142;28;20207;-46
2023/03/27 04:33:17;;;;;;;4.93;2.13;;;14.60;62.50;15.60;100810.00;;;;5011959;28;20192;-47
2023/03/27 04:35:44;;;;;;;2.93;2.23;;;14.50;62.40;15.60;100824.00;;;;5016802;28;20183;-46
2023/03/27 04:38:11;;;;;;;5.00;2.20;;;14.60;62.50;15.60;100825.00;;;;5020184;28;20176;-47
2023/03/27 04:40:37;;;;;;;9.07;2.20;;;14.60;62.60;15.60;100832.00;;;;5012836;28;20204;-46
2023/03/27 04:43:03;;;;;;;7.07;2.47;;;14.50;62.50;15.60;100821.00;;;;5008368;28;20174;-46
2023/03/27 04:45:31;;;;;;;7.47;2.30;;;14.50;62.60;15.50;100833.00;;;;5006251;28;20786;-46
2023/03/27 04:47:57;;;;;;;8.20;2.40;;;14.50;62.70;15.60;100832.00;;;;5005625;28;20176;-47
2023/03/27 04:50:22;;;;;;;9.67;2.97;;;14.50;62.90;15.50;100835.00;;;;5005657;28;20203;-45
2023/03/27 04:52:48;;;;;;;8.83;2.57;;;14.50;63.00;15.50;100831.00;;;;5007403;28;20731;-46
2023/03/27 04:55:14;;;;;;;8.83;2.60;;;14.50;63.30;15.50;100844.00;;;;5009734;28;20655;-45
2023/03/27 04:57:44;;;;;;;10.40;2.63;;;14.50;63.30;15.50;100848.00;;;;5012927;28;20188;-46
2023/03/27 05:00:15;;;;;;;8.90;2.53;;;14.50;63.40;15.50;100837.00;;;;5011655;28;20183;-46
2023/03/27 05:02:41;;;;;;;8.57;2.70;;;14.50;63.50;15.50;100844.00;;;;5011885;28;20191;-46
2023/03/27 05:05:08;;;;;;;6.57;2.30;;;14.50;63.50;15.40;100769.00;;;;5012109;28;20203;-46
2023/03/27 05:07:34;;;;;;;7.83;2.73;;;14.40;63.40;15.40;100852.00;;;;5012821;28;20565;-45
2023/03/27 05:10:01;;;;;;;7.97;2.40;;;14.40;63.40;15.40;100869.00;;;;5011998;28;20238;-45
2023/03/27 05:12:27;;;;;;;6.73;2.53;;;14.40;63.40;15.40;100866.00;;;;5011997;28;20207;-46
2023/03/27 05:14:52;;;;;;;4.80;2.50;;;14.40;63.50;15.40;100873.00;;;;5011773;28;20707;-46
2023/03/27 05:17:19;;;;;;;5.43;2.37;;;14.40;63.40;15.40;100864.00;;;;5011800;28;20179;-46
2023/03/27 05:19:44;;;;;;;4.17;2.30;;;14.40;63.40;15.40;100867.00;;;;5012174;28;20191;-47
2023/03/27 05:22:12;;;;;;;4.23;2.40;;;14.40;63.40;15.40;100852.00;;;;5011635;28;20689;-45
2023/03/27 05:24:38;;;;;;;3.60;2.10;;;14.40;63.40;15.40;100874.00;;;;5011338;28;20207;-46
2023/03/27 05:27:04;;;;;;;3.57;2.53;;;14.40;63.40;15.40;100877.00;;;;5012107;28;20186;-46
2023/03/27 05:29:30;;;;;;;5.27;2.03;;;14.40;63.50;15.40;100880.00;;;;5011836;28;20180;-46
2023/03/27 05:31:55;;;;;;;4.83;2.13;;;14.30;63.30;15.40;100884.00;;;;5010926;28;20207;-46
2023/03/27 05:34:21;;;;;;;4.13;2.13;;;14.30;63.30;15.30;100892.00;;;;5011983;28;20187;-46
2023/03/27 05:36:48;;;;;;;5.50;2.47;;;14.30;63.30;15.30;100896.00;;;;5011244;28;20194;-46
2023/03/27 05:39:14;;;;;;;3.87;2.10;;;14.30;63.30;15.30;100904.00;;;;5011189;28;20205;-46
2023/03/27 05:41:40;;;;;;;4.50;2.03;;;14.30;64.20;15.30;100895.00;;;;5011524;28;20666;-46
2023/03/27 05:44:06;;;;;;;4.00;2.27;;;14.30;63.40;15.30;100908.00;;;;5010394;28;20215;-46
2023/03/27 05:46:32;;;;;;;5.33;2.33;;;14.30;63.40;15.30;100912.00;;;;5011127;28;20182;-46
2023/03/27 05:48:58;;;;;;;4.43;2.10;;;14.30;63.40;15.30;100915.00;;;;5011550;28;20650;-46
2023/03/27 05:51:24;;;;;;;3.13;2.10;;;14.30;63.40;15.20;100904.00;;;;5010042;28;20203;-46
2023/03/27 05:53:50;;;;;;;4.37;2.47;;;14.20;63.40;15.20;100908.00;;;;5009063;28;20179;-46
2023/03/27 05:56:16;;;;;;;3.43;2.23;;;14.20;63.40;15.20;100921.00;;;;5011382;28;20183;-47
2023/03/27 05:58:41;;;;;;;6.63;2.10;;;14.20;64.20;15.20;100923.00;;;;5011257;28;20270;-46
2023/03/27 06:01:09;;;;;;;3.03;2.00;;;14.20;63.40;15.20;100917.00;;;;5011556;28;20203;-46
2023/03/27 06:03:37;;;;;;;4.10;2.00;;;14.20;63.40;15.20;100919.00;;;;5010218;28;20721;-47
2023/03/27 06:06:10;;;;;;;3.17;2.10;;;14.10;63.40;15.20;100859.00;;;;5011270;28;20788;-47
2023/03/27 06:08:36;;;;;;;3.93;2.10;;;14.10;63.40;15.20;100940.00;;;;5009772;28;20172;-47
2023/03/27 06:11:08;;;;;;;3.00;2.10;;;14.10;63.50;15.10;100932.00;;;;5009674;28;20199;-47
2023/03/27 06:13:34;;;;;;;4.17;2.00;;;14.10;63.50;15.10;100945.00;;;;5009804;28;20262;-46
2023/03/27 06:16:00;;;;;;;2.97;1.90;;;14.10;63.50;15.10;100951.00;;;;5010454;28;20188;-46
2023/03/27 06:18:26;;;;;;;5.23;2.20;;;14.10;63.40;15.10;100952.00;;;;5011158;28;20650;-46
2023/03/27 06:20:52;;;;;;;2.60;2.00;;;14.10;63.50;15.10;100950.00;;;;5010787;28;20207;-47
2023/03/27 06:23:17;;;;;;;3.37;1.80;;;14.10;63.50;15.10;100954.00;;;;5009737;28;20191;-47
2023/03/27 06:25:43;;;;;;;3.47;2.10;;;14.10;63.60;15.10;100968.00;;;;5010954;28;20171;-46
2023/03/27 06:28:09;;;;;;;2.57;2.00;;;14.00;63.60;15.10;100969.00;;;;5010700;28;20184;-46
2023/03/27 06:30:37;;;;;;;1.60;1.50;;;14.10;63.70;15.00;100975.00;;;;5009251;28;20242;-47
2023/03/27 06:33:03;;;;;;;2.10;1.90;;;14.00;63.60;15.00;100980.00;;;;5009606;28;20182;-46
2023/03/27 06:35:30;;;;;;;2.50;1.70;;;14.10;63.70;15.00;100900.00;;;;5010329;28;20626;-46
2023/03/27 06:37:58;;;;;;;2.13;1.80;;;14.00;63.60;15.00;100901.00;;;;5010296;28;20194;-46
2023/03/27 06:40:26;;;;;;;2.63;1.87;;;14.00;63.60;15.00;100985.00;;;;5010131;28;20678;-46
2023/03/27 06:42:52;;;;;;;3.20;1.90;;;14.00;63.60;15.00;100985.00;;;;5009706;28;20187;-46
2023/03/27 06:45:19;;;;;;;3.20;1.87;;;13.90;63.50;15.00;100984.00;;;;5010130;28;20231;-46
2023/03/27 06:48:03;;;;;;;3.17;1.87;;;14.00;63.70;15.00;100985.00;;;;5009693;28;20230;-46
2023/03/27 06:50:30;;;;;;;2.10;1.90;;;13.90;63.90;14.90;100998.00;;;;5011115;28;20195;-46
2023/03/27 06:52:56;;;;;;;1.80;1.70;;;13.90;63.70;14.90;100993.00;;;;5009363;28;20835;-47
2023/03/27 06:55:23;;;;;;;2.97;1.97;;;13.90;63.70;14.90;101000.00;;;;5010031;28;20188;-47
2023/03/27 06:57:51;;;;;;;2.13;1.70;;;13.90;63.70;14.90;101013.00;;;;5010162;28;20185;-47
2023/03/27 07:00:18;;;;;;;2.33;1.90;;;13.90;63.70;14.90;101002.00;;;;5008661;28;20231;-46
2023/03/27 07:02:54;;;;;;;2.67;1.60;;;13.90;63.70;14.90;100997.00;;;;5008738;28;20195;-46
2023/03/27 07:05:21;;;;;;;3.53;1.90;;;13.90;63.70;14.90;101009.00;;;;5010039;28;20210;-46
2023/03/27 07:07:47;;;;;;;2.43;1.90;;;13.90;63.70;14.90;100999.00;;;;5010193;28;20180;-46
2023/03/27 07:10:12;;;;;;;3.70;1.90;;;13.90;63.80;14.90;101009.00;;;;5008501;28;20186;-48
2023/03/27 07:12:40;;;;;;;1.87;1.70;;;13.90;63.80;14.80;100996.00;;;;5009578;28;20175;-46
2023/03/27 07:15:06;;;;;;;2.23;2.00;;;13.80;63.60;14.80;101013.00;;;;5009016;28;20179;-45
2023/03/27 07:17:32;;;;;;;1.90;1.70;;;13.80;63.70;14.80;101010.00;;;;5009952;28;20182;-46
2023/03/27 07:19:58;;;;;;;2.73;1.80;;;13.80;63.70;14.80;101028.00;;;;5009750;28;20222;-45
2023/03/27 07:22:25;;;;;;;2.27;1.80;;;13.80;63.70;14.80;101025.00;;;;5009201;28;20183;-45
2023/03/27 07:24:50;;;;;;;2.43;1.80;;;13.80;63.70;14.80;101038.00;;;;5004285;28;20219;-46
2023/03/27 07:27:16;;;;;;;2.10;1.80;;;13.80;63.70;14.80;101033.00;;;;5009081;28;20666;-45
2023/03/27 07:29:42;;;;;;;2.50;1.90;;;13.80;63.70;14.80;101051.00;;;;5008370;28;20234;-46
2023/03/27 07:32:07;;;;;;;2.00;1.80;;;13.80;63.90;14.80;101017.00;;;;5007642;28;20242;-46
2023/03/27 07:34:33;;;;;;;2.63;1.90;;;13.80;64.60;14.80;101046.00;;;;5006352;28;20233;-46
2023/03/27 07:36:59;;;;;;;2.03;1.80;;;13.80;63.90;14.70;101046.00;;;;5003071;28;20176;-47
2023/03/27 07:39:25;;;;;;;6.03;2.03;;;13.80;64.30;14.70;101048.00;;;;5009863;28;20184;-47
2023/03/27 07:41:51;;;;;;;2.80;1.90;;;13.80;65.60;14.70;101045.00;;;;5003677;28;20248;-48
2023/03/27 07:44:18;;;;;;;4.43;1.90;;;13.80;65.00;14.70;101048.00;;;;5003936;28;20583;-45
2023/03/27 07:46:44;;;;;;;3.40;1.97;;;13.90;65.20;14.80;101057.00;;;;5006892;28;20651;-47
2023/03/27 07:49:10;;;;;;;2.67;1.83;;;13.90;65.20;14.80;101051.00;;;;5006395;28;20195;-47
2023/03/27 07:51:37;;;;;;;3.23;1.80;;;14.00;65.20;14.80;101050.00;;;;5006861;28;20203;-46
2023/03/27 07:54:03;;;;;;;2.73;1.80;;;14.10;65.30;14.80;101059.00;;;;5003459;28;20180;-47
2023/03/27 07:56:33;;;;;;;4.30;1.93;;;14.10;65.20;14.90;101058.00;;;;5002491;28;20179;-47
2023/03/27 07:58:59;;;;;;;3.67;1.80;;;14.20;65.30;14.90;101053.00;;;;5009595;28;20182;-47
2023/03/27 08:01:25;;;;;;;4.73;1.93;;;14.30;65.40;15.00;101058.00;;;;5008807;28;20204;-47
2023/03/27 08:03:51;;;;;;;2.23;1.80;;;14.30;65.40;15.00;101059.00;;;;5003230;28;20239;-46
2023/03/27 08:06:17;;;;;;;3.10;1.90;;;14.40;65.50;15.10;101063.00;;;;5005848;28;20182;-46
2023/03/27 08:08:43;;;;;;;1.97;1.60;;;14.50;65.40;15.20;101072.00;;;;5009013;28;20572;-46
2023/03/27 08:11:09;;;;;;;2.50;1.60;;;14.60;65.40;15.30;101071.00;;;;5009264;28;20192;-46
2023/03/27 08:13:34;;;;;;;2.00;1.67;;;14.70;65.50;15.30;101070.00;;;;5001796;28;20251;-46
2023/03/27 08:16:03;;;;;;;2.23;1.60;;;14.80;65.50;15.50;101076.00;;;;5003105;28;20195;-47
2023/03/27 08:18:28;;;;;;;1.90;1.53;;;14.90;65.50;15.60;101080.00;;;;5003863;28;20168;-47
2023/03/27 08:20:56;;;;;;;1.80;1.70;;;15.00;65.40;15.70;101076.00;;;;5009684;28;20196;-47
2023/03/27 08:23:25;;;;;;;2.17;1.70;;;15.10;65.50;15.70;101067.00;;;;5009138;28;20183;-47
2023/03/27 08:25:52;;;;;;;2.30;1.47;;;15.20;65.40;15.80;101066.00;;;;5010213;28;20203;-46
2023/03/27 08:28:18;;;;;;;1.70;1.60;;;15.30;65.40;15.90;101076.00;;;;5009642;28;20239;-48
2023/03/27 08:30:43;;;;;;;1.97;1.50;;;15.40;65.40;16.00;101083.00;;;;5009550;28;20196;-46
2023/03/27 08:33:10;;;;;;;2.03;1.70;;;15.50;65.40;16.10;101086.00;;;;5008572;28;20222;-46
2023/03/27 08:35:36;;;;;;;2.23;1.47;;;15.50;65.30;16.20;101089.00;;;;5009217;28;20206;-46
2023/03/27 08:38:02;;;;;;;2.30;1.70;;;15.70;66.20;16.30;101083.00;;;;5009511;28;20230;-46
2023/03/27 08:40:29;;;;;;;1.40;1.30;;;15.70;65.20;16.40;101089.00;;;;5009732;28;20329;-47
2023/03/27 08:42:59;;;;;;;4.70;1.60;;;15.80;65.30;16.50;101090.00;;;;5003627;28;20180;-46
2023/03/27 08:45:33;;;;;;;3.30;1.70;;;15.90;65.40;16.50;101096.00;;;;5002527;28;20226;-46
2023/03/27 08:48:04;;;;;;;1.90;1.67;;;15.90;65.40;16.60;101091.00;;;;5005885;28;20207;-45
2023/03/27 08:50:43;;;;;;;1.87;1.57;;;16.00;65.30;16.70;101079.00;;;;5003678;28;20282;-46
2023/03/27 08:53:34;;;;;;;3.60;1.80;;;16.10;65.30;16.80;101096.00;;;;5011948;28;20207;-46
2023/03/27 08:56:01;;;;;;;2.47;1.70;;;16.20;65.30;16.90;101113.00;;;;5008908;28;20180;-45
2023/03/27 08:58:27;;;;;;;2.83;1.70;;;16.20;65.60;16.90;101122.00;;;;5008109;28;20260;-46
2023/03/27 09:01:03;;;;;;;4.37;1.80;;;16.30;65.40;17.00;101116.00;;;;5009416;28;20291;-46
2023/03/27 09:03:56;;;;;;;4.53;1.87;;;16.40;65.20;17.10;101123.00;;;;5007817;28;20669;-46
2023/03/27 09:06:37;;;;;;;6.27;2.00;;;16.40;64.90;17.10;101106.00;;;;5008093;28;20202;-46
2023/03/27 09:09:10;;;;;;;5.43;1.60;;;16.40;64.60;17.10;101122.00;;;;5007594;28;20608;-46
2023/03/27 09:11:41;;;;;;;3.77;1.70;;;16.40;64.50;17.20;101111.00;;;;5008908;28;20199;-46
2023/03/27 09:14:29;;;;;;;3.63;1.73;;;16.40;64.60;17.20;101134.00;;;;5011075;28;20639;-47
2023/03/27 09:16:55;;;;;;;4.77;1.90;;;16.50;64.40;17.20;101121.00;;;;5011691;28;20268;-46
2023/03/27 09:19:50;;;;;;;5.77;1.83;;;16.50;64.20;17.30;101158.00;;;;5011656;28;20183;-46
2023/03/27 09:22:30;;;;;;;4.87;1.90;;;16.50;64.30;17.30;101144.00;;;;4997201;28;20263;-45
2023/03/27 09:25:01;;;;;;;15.00;2.27;;;16.50;64.30;17.30;101141.00;;;;5010686;28;20244;-45
2023/03/27 09:27:33;;;;;;;5.40;1.90;;;16.50;64.10;17.30;101149.00;;;;5011104;28;20666;-45
2023/03/27 09:30:31;;;;;;;5.20;2.03;;;16.60;64.00;17.40;101150.00;;;;5011333;28;20252;-46
2023/03/27 09:33:02;;;;;;;3.17;1.50;;;16.60;63.90;17.40;101138.00;;;;5011867;28;20291;-47
2023/03/27 09:35:28;;;;;;;3.07;2.00;;;16.60;63.80;17.40;101142.00;;;;5015531;28;20717;-45
2023/03/27 09:37:59;;;;;;;4.33;1.60;;;16.60;63.50;17.40;101143.00;;;;5014591;28;20179;-47
2023/03/27 09:40:32;;;;;;;3.27;1.60;;;16.60;63.50;17.40;101136.00;;;;5011446;28;20196;-46
2023/03/27 09:43:08;;;;;;;1.60;1.50;;;16.50;63.30;17.40;101142.00;;;;4995006;28;20271;-46
2023/03/27 09:45:37;;;;;;;8.43;1.90;;;16.50;63.10;17.40;101139.00;;;;5010507;28;20195;-47
2023/03/27 09:48:04;;;;;;;3.30;1.80;;;16.50;63.00;17.40;101124.00;;;;5009891;28;20176;-46
2023/03/27 09:50:41;;;;;;;2.87;1.77;;;16.50;63.00;17.40;101137.00;;;;5009514;28;20199;-47
2023/03/27 09:53:19;;;;;;;5.37;1.70;;;16.50;62.90;17.40;101147.00;;;;5010177;28;20179;-46
2023/03/27 09:56:06;;;;;;;5.63;1.70;;;16.50;63.00;17.40;101146.00;;;;5012321;28;20181;-45
2023/03/27 09:58:39;;;;;;;2.47;1.70;;;16.50;63.00;17.40;101134.00;;;;5011761;28;20173;-46
2023/03/27 10:01:29;;;;;;;4.50;1.90;;;16.60;63.10;17.40;101149.00;;;;5010838;28;20207;-46
2023/03/27 10:03:56;;;;;;;3.03;1.77;;;16.50;63.00;17.40;101150.00;;;;5011738;28;20207;-46
2023/03/27 10:06:30;;;;;;;3.50;1.70;;;16.50;63.00;17.40;101158.00;;;;5011291;28;20167;-46
2023/03/27 10:08:59;;;;;;;4.23;1.80;;;16.50;63.00;17.40;101155.00;;;;5011282;28;20175;-46
2023/03/27 10:11:30;;;;;;;2.90;1.80;;;16.60;63.20;17.40;101155.00;;;;5011343;28;20202;-47
2023/03/27 10:13:56;;;;;;;2.50;1.70;;;16.50;63.20;17.40;101163.00;;;;5009519;28;20176;-46
2023/03/27 10:16:22;;;;;;;4.60;1.70;;;16.60;63.50;17.40;101170.00;;;;5013410;28;20188;-46
2023/03/27 10:18:53;;;;;;;4.67;2.33;;;16.50;63.40;17.40;101205.00;;;;5011732;28;20267;-46
2023/03/27 10:21:31;;;;;;;9.10;2.17;;;16.60;64.60;17.40;101195.00;;;;4994748;28;20200;-46
2023/03/27 10:24:24;;;;;;;7.57;2.00;;;16.60;65.80;17.40;101196.00;;;;5008103;28;20241;-46
2023/03/27 10:26:51;;;;;;;6.90;2.23;;;16.60;65.80;17.40;101190.00;;;;5010588;28;20230;-45
2023/03/27 10:29:30;;;;;;;9.10;2.17;;;16.60;66.20;17.40;101183.00;;;;5011005;28;20172;-45
2023/03/27 10:31:58;;;;;;;4.93;2.10;;;16.60;66.70;17.40;101175.00;;;;5009681;28;20199;-45
2023/03/27 10:34:40;;;;;;;7.07;2.70;;;16.60;66.60;17.40;101178.00;;;;5010464;28;20686;-46
2023/03/27 10:37:28;;;;;;;6.03;2.10;;;16.50;66.50;17.40;101170.00;;;;5011695;28;20549;-46
2023/03/27 10:39:55;;;;;;;6.07;2.00;;;16.60;66.70;17.40;101111.00;;;;5012372;28;20215;-45
2023/03/27 10:42:21;;;;;;;4.77;2.00;;;16.50;66.60;17.40;101191.00;;;;5009268;28;20184;-45
2023/03/27 10:44:47;;;;;;;4.87;2.17;;;16.60;66.70;17.40;101196.00;;;;5009896;28;20323;-46
2023/03/27 10:47:32;;;;;;;7.53;2.20;;;16.50;66.60;17.40;101184.00;;;;5010031;28;20172;-45
2023/03/27 10:50:22;;;;;;;3.53;2.07;;;16.50;66.70;17.40;101174.00;;;;5009483;28;20824;-46
2023/03/27 10:53:01;;;;;;;6.43;2.17;;;16.50;66.70;17.30;101171.00;;;;5009758;28;20173;-46
2023/03/27 10:55:43;;;;;;;8.20;2.30;;;16.50;66.70;17.30;101181.00;;;;5009805;28;20559;-46
2023/03/27 10:58:30;;;;;;;7.17;2.30;;;16.50;66.70;17.30;101197.00;;;;5009625;28;20180;-48
2023/03/27 11:01:39;;;;;;;5.57;1.90;;;16.50;67.00;17.30;101217.00;;;;5008402;28;20211;-47
2023/03/27 11:04:31;;;;;;;4.87;2.07;;;16.50;67.00;17.30;101220.00;;;;5010744;28;20195;-47